Time;durP1;ratioP1;P1;durP2;ratioP2;P2;SDS_P1;SDS_P2;PMS_P1;PMS_P2;Temp;Humidity;BMP_temperature;BMP_pressure;BME280_temperature;BME280_humidity;BME280_pressure;Samples;Min_cycle;Max_cycle;Signal;HPM_P1;HPM_P2
2021/10/13 00:01:26;;;;;;;53.90;33.30;;;;;;;6.01;82.80;96993.67;116011;1183;59618;-67
2021/10/13 00:03:56;;;;;;;;;;;;;;;5.97;82.82;96990.35;115993;1182;70615;-67
2021/10/13 00:06:26;;;;;;;54.40;32.90;;;;;;;5.93;83.26;96990.57;115961;1184;68417;-65
2021/10/13 00:08:56;;;;;;;60.00;34.40;;;;;;;5.93;83.55;96988.67;115991;1183;69090;-67
2021/10/13 00:11:27;;;;;;;59.50;35.80;;;;;;;5.92;83.66;96982.17;116161;1177;59614;-67
2021/10/13 00:13:57;;;;;;;41.60;25.90;;;;;;;5.91;83.61;96980.13;116042;1183;59532;-65
2021/10/13 00:16:30;;;;;;;52.10;32.80;;;;;;;5.94;83.49;96980.65;115998;1183;70591;-67
2021/10/13 00:19:00;;;;;;;53.20;31.80;;;;;;;5.94;83.54;96976.51;115900;1183;68823;-67
2021/10/13 00:21:30;;;;;;;48.60;30.00;;;;;;;5.93;83.48;96976.36;116071;1182;68591;-66
2021/10/13 00:24:00;;;;;;;;;;;;;;;5.93;83.01;96973.42;115999;1183;59566;-66
2021/10/13 00:26:30;;;;;;;59.80;32.40;;;;;;;5.92;82.97;96972.28;116022;1182;59557;-67
2021/10/13 00:29:00;;;;;;;50.90;31.40;;;;;;;5.93;83.09;96974.66;116071;1183;71467;-66
2021/10/13 00:31:30;;;;;;;;;;;;;;;5.93;83.13;96974.33;116030;1184;68387;-66
2021/10/13 00:34:00;;;;;;;46.60;29.30;;;;;;;5.89;83.30;96972.11;116056;1182;70392;-67
2021/10/13 00:36:30;;;;;;;53.40;32.20;;;;;;;5.87;83.50;96971.48;116003;1184;59617;-67
2021/10/13 00:39:00;;;;;;;55.80;34.00;;;;;;;5.86;83.58;96969.83;115805;1184;59538;-68
2021/10/13 00:41:31;;;;;;;42.80;25.80;;;;;;;5.85;83.64;96968.34;115941;1184;70624;-67
2021/10/13 00:44:01;;;;;;;43.40;26.80;;;;;;;5.83;83.48;96966.55;116011;1184;66941;-67
2021/10/13 00:46:31;;;;;;;49.40;28.20;;;;;;;5.87;82.97;96964.92;115846;1184;69420;-62
2021/10/13 00:49:02;;;;;;;42.50;23.90;;;;;;;5.89;83.23;96967.79;115919;1182;59561;-64
2021/10/13 00:51:31;;;;;;;;;;;;;;;5.89;82.94;96969.16;115852;1184;59586;-64
2021/10/13 00:54:02;;;;;;;33.80;22.00;;;;;;;5.88;83.20;96971.13;116011;1184;71290;-68
2021/10/13 00:56:32;;;;;;;38.20;23.00;;;;;;;5.87;83.33;96970.47;116281;1182;67487;-68
2021/10/13 00:59:03;;;;;;;39.50;23.50;;;;;;;5.85;83.36;96973.54;116329;1182;69345;-65
2021/10/13 01:01:58;;;;;;;48.40;30.70;;;;;;;5.84;83.44;96971.02;116082;1182;59567;-67
2021/10/13 01:04:54;;;;;;;44.10;28.50;;;;;;;5.84;83.11;96969.64;116220;1184;59529;-67
2021/10/13 01:07:44;;;;;;;48.10;29.30;;;;;;;5.84;83.56;96971.33;116308;1182;71365;-65
2021/10/13 01:10:18;;;;;;;50.90;33.10;;;;;;;5.83;83.92;96969.52;116007;1184;66753;-64
2021/10/13 01:13:00;;;;;;;51.00;30.40;;;;;;;5.81;83.88;96968.63;116068;1182;68193;-66
2021/10/13 01:15:49;;;;;;;50.20;29.90;;;;;;;5.77;84.04;96964.55;116151;1182;60431;-64
2021/10/13 01:18:50;;;;;;;41.80;25.80;;;;;;;5.78;83.78;96961.16;116081;1182;60365;-67
2021/10/13 01:21:35;;;;;;;54.90;30.10;;;;;;;5.76;84.30;96962.66;116069;1184;73435;-65
2021/10/13 01:25:01;;;;;;;48.70;28.20;;;;;;;5.74;84.39;96959.88;115961;1183;67913;-66
2021/10/13 01:27:53;;;;;;;40.00;22.10;;;;;;;5.70;84.09;96960.61;115624;1187;69276;-64
2021/10/13 01:30:24;;;;;;;51.80;30.00;;;;;;;5.76;83.49;96963.05;115561;1186;60464;-64
2021/10/13 01:33:10;;;;;;;46.50;26.80;;;;;;;5.70;84.03;96960.43;115510;1187;60460;-69
2021/10/13 01:35:48;;;;;;;53.50;30.60;;;;;;;5.73;83.72;96963.05;115842;1187;71841;-67
2021/10/13 01:38:23;;;;;;;45.40;25.80;;;;;;;5.69;83.87;96962.98;115821;1187;68586;-66
2021/10/13 01:40:56;;;;;;;48.20;29.50;;;;;;;5.63;84.12;96964.86;115556;1187;69257;-68
2021/10/13 01:43:28;;;;;;;52.80;30.00;;;;;;;5.59;83.95;96960.23;115527;1187;60380;-65
2021/10/13 01:46:01;;;;;;;48.60;28.50;;;;;;;5.60;83.97;96962.60;115568;1187;60412;-65
2021/10/13 01:48:32;;;;;;;52.60;32.30;;;;;;;5.58;84.15;96964.82;115478;1187;71230;-67
2021/10/13 01:51:02;;;;;;;55.30;33.40;;;;;;;5.55;84.36;96960.47;115773;1187;66703;-65
2021/10/13 01:53:34;;;;;;;48.10;28.20;;;;;;;5.56;84.01;96955.07;115577;1187;69445;-66
2021/10/13 01:56:06;;;;;;;39.70;25.40;;;;;;;5.54;84.12;96957.73;115839;1187;60383;-64
2021/10/13 01:58:38;;;;;;;54.50;30.10;;;;;;;5.51;84.27;96956.40;115575;1187;60473;-68
2021/10/13 02:01:11;;;;;;;48.00;26.00;;;;;;;5.52;84.26;96959.29;115545;1187;72214;-65
2021/10/13 02:03:45;;;;;;;48.50;28.70;;;;;;;5.53;83.95;96962.30;115622;1187;68413;-69
2021/10/13 02:06:36;;;;;;;47.40;27.70;;;;;;;5.53;84.21;96965.23;116222;1184;68459;-66
2021/10/13 02:09:06;;;;;;;42.50;24.20;;;;;;;5.53;84.31;96972.51;116273;1183;60317;-64
2021/10/13 02:11:37;;;;;;;49.10;30.30;;;;;;;5.54;84.01;96972.79;116015;1181;60290;-66
2021/10/13 02:14:12;;;;;;;54.60;29.50;;;;;;;5.52;84.41;96976.91;115966;1183;72187;-66
2021/10/13 02:16:48;;;;;;;45.00;25.90;;;;;;;5.50;84.62;96976.19;116124;1183;67431;-68
2021/10/13 02:19:20;;;;;;;49.70;29.70;;;;;;;5.47;84.94;96980.81;116010;1183;68458;-66
2021/10/13 02:21:53;;;;;;;48.90;28.10;;;;;;;5.46;84.69;96983.33;116034;1183;60361;-69
2021/10/13 02:24:31;;;;;;;50.10;31.10;;;;;;;5.39;84.55;96984.59;116019;1182;60358;-67
2021/10/13 02:27:08;;;;;;;53.90;31.60;;;;;;;5.35;84.85;96983.06;115977;1182;72340;-67
2021/10/13 02:29:38;;;;;;;55.30;30.40;;;;;;;5.32;85.08;96984.66;115873;1184;68458;-65
2021/10/13 02:32:08;;;;;;;;;;;;;;;5.34;85.14;96988.15;115975;1183;68455;-64
2021/10/13 02:34:39;;;;;;;49.40;29.70;;;;;;;5.32;84.49;96993.64;115967;1183;60421;-66
2021/10/13 02:37:09;;;;;;;49.40;28.60;;;;;;;5.27;84.12;96995.31;115970;1181;60338;-65
2021/10/13 02:39:40;;;;;;;47.50;29.50;;;;;;;5.29;83.75;96998.80;115868;1176;72193;-66
2021/10/13 02:42:10;;;;;;;48.80;28.30;;;;;;;5.32;83.81;97002.65;115994;1184;67940;-67
2021/10/13 02:44:40;;;;;;;53.50;29.90;;;;;;;5.27;84.13;97007.56;116037;1184;69271;-67
2021/10/13 02:47:16;;;;;;;42.00;24.90;;;;;;;5.24;84.19;97010.21;115934;1184;60338;-66
2021/10/13 02:50:02;;;;;;;47.80;23.40;;;;;;;5.24;84.00;97013.43;115979;1184;60356;-66
2021/10/13 02:53:29;;;;;;;46.60;26.60;;;;;;;5.22;84.18;97011.73;115948;1184;72184;-66
2021/10/13 02:56:04;;;;;;;52.00;29.90;;;;;;;5.20;84.24;97012.52;115526;1187;68238;-67
2021/10/13 02:58:46;;;;;;;49.10;29.20;;;;;;;5.16;84.23;97014.99;115518;1187;69277;-65
2021/10/13 03:01:18;;;;;;;52.70;29.40;;;;;;;5.15;84.44;97014.48;115685;1185;60357;-68
2021/10/13 03:03:58;;;;;;;41.60;24.70;;;;;;;5.17;84.35;97015.97;116192;1184;60341;-67
2021/10/13 03:06:38;;;;;;;47.60;26.30;;;;;;;5.15;84.43;97011.91;115821;1184;71648;-68
2021/10/13 03:09:08;;;;;;;40.90;22.70;;;;;;;5.20;83.87;97009.23;115952;1183;68332;-67
2021/10/13 03:11:39;;;;;;;38.30;21.60;;;;;;;5.20;84.12;97012.69;116289;1183;69134;-64
2021/10/13 03:14:10;;;;;;;47.70;28.70;;;;;;;5.22;84.02;97014.30;115993;1185;60309;-67
2021/10/13 03:16:42;;;;;;;47.60;29.60;;;;;;;5.15;84.46;97014.86;115948;1184;60341;-64
2021/10/13 03:19:12;;;;;;;48.80;29.20;;;;;;;5.01;84.49;97011.48;116026;1183;71231;-68
2021/10/13 03:21:43;;;;;;;41.70;25.10;;;;;;;4.98;84.55;97009.26;116049;1183;67620;-68
2021/10/13 03:24:16;;;;;;;50.80;29.30;;;;;;;4.98;84.54;97011.63;115913;1184;68603;-68
2021/10/13 03:26:48;;;;;;;44.40;22.50;;;;;;;4.95;84.63;97006.66;115959;1184;60883;-69
2021/10/13 03:29:18;;;;;;;45.80;25.70;;;;;;;4.97;84.47;97002.03;116296;1182;60363;-66
2021/10/13 03:31:47;;;;;;;40.10;22.10;;;;;;;4.98;84.39;97002.18;115913;1184;71707;-66
2021/10/13 03:34:17;;;;;;;38.60;20.90;;;;;;;5.01;84.17;96998.21;116031;1184;67521;-69
2021/10/13 03:36:49;;;;;;;36.10;20.60;;;;;;;5.03;83.95;96993.60;116235;1184;69313;-65
2021/10/13 03:39:19;;;;;;;37.70;22.40;;;;;;;5.04;83.93;96989.20;116063;1184;60358;-66
2021/10/13 03:41:49;;;;;;;38.50;22.70;;;;;;;5.03;83.95;96988.37;115868;1185;60727;-66
2021/10/13 03:44:22;;;;;;;51.30;27.70;;;;;;;5.03;83.90;96983.21;115967;1183;71485;-69
2021/10/13 03:46:52;;;;;;;40.30;24.70;;;;;;;4.97;84.20;96982.20;116024;1183;68442;-67
2021/10/13 03:49:22;;;;;;;48.00;28.90;;;;;;;4.92;84.55;96980.92;115909;1187;68460;-66
2021/10/13 03:51:52;;;;;;;47.90;28.10;;;;;;;4.90;84.36;96978.60;115982;1184;60774;-67
2021/10/13 03:54:21;;;;;;;48.40;26.70;;;;;;;4.91;84.23;96973.59;115979;1184;60361;-68
2021/10/13 03:56:51;;;;;;;28.50;17.10;;;;;;;4.90;84.33;96968.94;116093;1183;71410;-68
2021/10/13 03:59:20;;;;;;;35.10;20.90;;;;;;;4.94;83.74;96966.67;115925;1184;68439;-67
2021/10/13 04:01:50;;;;;;;36.90;21.30;;;;;;;4.95;83.62;96967.30;115984;1183;69179;-66
2021/10/13 04:04:20;;;;;;;35.80;19.40;;;;;;;4.93;83.73;96968.23;115885;1174;60363;-68
2021/10/13 04:06:49;;;;;;;28.50;18.20;;;;;;;4.91;83.63;96965.94;115972;1183;60284;-67
2021/10/13 04:09:19;;;;;;;39.40;22.10;;;;;;;4.89;83.56;96965.92;115983;1183;71491;-66
2021/10/13 04:11:48;;;;;;;32.10;18.80;;;;;;;4.83;83.69;96970.00;115979;1183;68458;-67
2021/10/13 04:14:18;;;;;;;42.40;26.30;;;;;;;4.79;83.48;96976.31;115865;1184;69297;-67
2021/10/13 04:16:47;;;;;;;38.90;23.10;;;;;;;4.72;83.65;96982.76;115952;1184;60352;-67
2021/10/13 04:19:17;;;;;;;42.30;24.70;;;;;;;4.67;83.90;96991.13;116051;1183;60364;-67
2021/10/13 04:21:47;;;;;;;37.80;23.40;;;;;;;4.65;84.41;96993.87;116041;1183;72797;-66
2021/10/13 04:24:17;;;;;;;39.80;23.60;;;;;;;4.64;84.32;96994.58;116107;1182;67721;-68
2021/10/13 04:26:46;;;;;;;25.80;14.90;;;;;;;4.66;84.02;96993.58;115890;1184;69292;-67
2021/10/13 04:29:16;;;;;;;27.30;15.40;;;;;;;4.69;84.17;96995.52;115973;1184;60383;-68
2021/10/13 04:31:46;;;;;;;26.40;15.10;;;;;;;4.73;83.95;97003.61;115915;1184;60360;-66
2021/10/13 04:34:15;;;;;;;31.70;18.70;;;;;;;4.76;83.79;97005.99;116186;1182;71583;-66
2021/10/13 04:36:45;;;;;;;32.40;18.50;;;;;;;4.79;83.74;97009.47;116056;1183;67704;-67
2021/10/13 04:39:14;;;;;;;23.60;13.10;;;;;;;4.81;83.60;97007.07;115969;1184;69318;-67
2021/10/13 04:41:43;;;;;;;41.60;24.60;;;;;;;4.86;83.34;97011.66;115984;1182;60366;-68
2021/10/13 04:44:13;;;;;;;27.00;15.30;;;;;;;4.87;84.00;97014.55;115980;1184;60363;-69
2021/10/13 04:46:42;;;;;;;39.50;21.70;;;;;;;4.90;83.63;97018.17;116337;1183;71495;-67
2021/10/13 04:49:12;;;;;;;39.90;22.10;;;;;;;4.91;83.91;97022.60;115968;1182;68437;-68
2021/10/13 04:51:41;;;;;;;27.60;16.60;;;;;;;4.92;84.03;97024.41;115928;1184;68775;-68
2021/10/13 04:54:11;;;;;;;29.60;16.20;;;;;;;4.95;83.63;97028.77;115989;1183;61214;-66
2021/10/13 04:56:40;;;;;;;42.60;26.20;;;;;;;4.98;83.43;97031.53;115993;1185;60348;-67
2021/10/13 04:59:10;;;;;;;26.00;15.80;;;;;;;4.99;83.82;97036.31;115964;1183;71981;-65
2021/10/13 05:01:39;;;;;;;26.50;16.80;;;;;;;5.01;83.20;97041.67;115809;1184;67800;-65
2021/10/13 05:04:08;;;;;;;20.70;13.10;;;;;;;5.03;83.12;97042.80;115920;1182;68594;-69
2021/10/13 05:06:38;;;;;;;37.60;23.00;;;;;;;5.06;82.99;97049.20;116002;1184;60382;-68
2021/10/13 05:09:07;;;;;;;25.50;14.20;;;;;;;5.06;83.12;97048.35;115978;1184;60387;-68
2021/10/13 05:11:36;;;;;;;28.30;16.20;;;;;;;5.06;82.97;97051.78;116004;1183;71519;-65
2021/10/13 05:14:05;;;;;;;24.70;15.20;;;;;;;5.06;82.94;97053.02;115954;1184;67935;-67
2021/10/13 05:16:35;;;;;;;28.70;17.50;;;;;;;5.06;82.88;97054.91;116077;1183;68481;-67
2021/10/13 05:19:04;;;;;;;21.50;12.60;;;;;;;5.07;82.83;97058.44;116161;1184;60347;-66
2021/10/13 05:21:34;;;;;;;19.90;11.30;;;;;;;5.10;83.09;97058.83;116144;1184;60339;-65
2021/10/13 05:24:04;;;;;;;25.10;15.00;;;;;;;5.14;82.85;97065.03;116060;1183;72787;-67
2021/10/13 05:26:33;;;;;;;23.00;13.70;;;;;;;5.16;82.97;97064.55;116051;1184;68443;-68
2021/10/13 05:29:03;;;;;;;33.20;18.60;;;;;;;5.18;82.74;97068.39;116208;1182;69649;-66
2021/10/13 05:31:32;;;;;;;29.90;16.30;;;;;;;5.21;82.51;97070.63;115986;1184;60334;-67
2021/10/13 05:34:01;;;;;;;24.60;14.70;;;;;;;5.21;82.75;97069.63;116202;1184;60399;-67
2021/10/13 05:36:30;;;;;;;25.70;14.90;;;;;;;5.20;82.78;97073.80;116081;1184;72890;-64
2021/10/13 05:38:59;;;;;;;25.00;15.90;;;;;;;5.22;82.48;97077.85;116155;1182;68381;-67
2021/10/13 05:41:29;;;;;;;22.50;12.30;;;;;;;5.24;82.36;97076.55;116013;1184;69927;-68
2021/10/13 05:43:58;;;;;;;33.20;19.70;;;;;;;5.23;82.68;97082.77;116162;1182;60380;-66
2021/10/13 05:46:28;;;;;;;20.40;11.20;;;;;;;5.21;82.73;97080.34;116233;1179;60299;-64
2021/10/13 05:48:57;;;;;;;25.40;15.60;;;;;;;5.25;82.40;97081.33;116083;1184;72236;-67
2021/10/13 05:51:26;;;;;;;24.00;14.70;;;;;;;5.28;82.42;97083.02;115971;1184;67656;-67
2021/10/13 05:53:55;;;;;;;28.00;16.30;;;;;;;5.31;82.46;97082.52;116207;1182;69355;-68
2021/10/13 05:56:24;;;;;;;26.80;15.00;;;;;;;5.33;82.47;97086.34;116209;1182;60356;-67
2021/10/13 05:58:54;;;;;;;27.80;16.80;;;;;;;5.37;82.32;97089.94;116178;1182;60361;-65
2021/10/13 06:01:25;;;;;;;26.80;14.80;;;;;;;5.39;82.47;97090.73;116132;1184;70675;-69
2021/10/13 06:03:54;;;;;;;26.40;14.40;;;;;;;5.38;82.30;97091.63;116167;1182;67584;-67
2021/10/13 06:06:24;;;;;;;24.50;14.40;;;;;;;5.38;82.18;97093.89;115971;1184;69423;-67
2021/10/13 06:08:53;;;;;;;21.60;12.50;;;;;;;5.37;82.16;97091.68;116130;1182;60812;-67
2021/10/13 06:11:22;;;;;;;24.90;14.70;;;;;;;5.40;82.00;97093.24;116184;1183;60317;-67
2021/10/13 06:13:52;;;;;;;21.30;12.60;;;;;;;5.40;82.03;97094.64;116010;1184;72156;-64
2021/10/13 06:16:21;;;;;;;23.20;12.90;;;;;;;5.41;82.13;97099.21;116155;1184;67717;-65
2021/10/13 06:18:51;;;;;;;23.80;13.70;;;;;;;5.43;82.00;97102.38;116142;1183;67843;-66
2021/10/13 06:21:22;;;;;;;28.60;14.20;;;;;;;5.44;81.93;97103.21;116279;1182;60376;-64
2021/10/13 06:23:51;;;;;;;24.60;14.20;;;;;;;5.45;81.80;97108.31;116186;1183;60348;-67
2021/10/13 06:26:21;;;;;;;24.30;14.20;;;;;;;5.47;81.84;97117.91;116090;1184;72883;-66
2021/10/13 06:28:51;;;;;;;27.60;16.90;;;;;;;5.48;81.77;97121.77;116129;1183;68412;-65
2021/10/13 06:31:23;;;;;;;19.70;11.10;;;;;;;5.50;81.53;97122.39;116171;1184;69417;-66
2021/10/13 06:33:54;;;;;;;21.60;13.30;;;;;;;5.54;81.36;97125.27;116182;1182;60340;-67
2021/10/13 06:36:24;;;;;;;21.50;13.80;;;;;;;5.57;81.26;97127.82;116274;1174;60367;-67
2021/10/13 06:38:53;;;;;;;31.60;17.90;;;;;;;5.61;80.97;97132.30;116040;1183;72332;-67
2021/10/13 06:41:26;;;;;;;34.40;19.30;;;;;;;5.55;80.54;97131.27;116293;1182;67677;-66
2021/10/13 06:43:55;;;;;;;29.80;17.70;;;;;;;5.47;81.21;97132.76;116151;1184;69244;-68
2021/10/13 06:46:26;;;;;;;19.20;11.90;;;;;;;5.51;81.41;97135.27;116154;1184;60337;-65
2021/10/13 06:48:55;;;;;;;21.70;12.30;;;;;;;5.57;80.98;97135.48;116057;1182;60356;-67
2021/10/13 06:51:25;;;;;;;32.50;18.50;;;;;;;5.61;80.51;97137.66;116122;1184;71391;-65
2021/10/13 06:53:54;;;;;;;26.50;16.20;;;;;;;5.67;80.15;97136.83;116225;1184;67710;-66
2021/10/13 06:56:23;;;;;;;21.80;13.60;;;;;;;5.70;80.07;97137.86;116021;1184;69258;-62
2021/10/13 06:58:53;;;;;;;20.50;12.40;;;;;;;5.76;80.24;97137.84;115967;1184;60342;-66
2021/10/13 07:01:22;;;;;;;25.00;14.70;;;;;;;5.84;79.91;97137.39;116172;1183;60373;-66
2021/10/13 07:03:52;;;;;;;30.70;18.20;;;;;;;5.93;79.85;97143.24;116161;1183;72751;-65
2021/10/13 07:06:22;;;;;;;32.50;19.70;;;;;;;5.97;79.51;97143.76;116159;1182;67848;-64
2021/10/13 07:08:51;;;;;;;23.50;13.60;;;;;;;6.00;79.22;97145.44;116152;1184;68707;-64
2021/10/13 07:11:21;;;;;;;28.20;18.00;;;;;;;6.06;79.23;97147.86;116015;1184;60440;-66
2021/10/13 07:13:51;;;;;;;32.90;19.60;;;;;;;6.04;79.01;97152.16;116164;1183;60349;-67
2021/10/13 07:16:20;;;;;;;30.00;16.60;;;;;;;6.04;78.74;97152.00;116113;1184;72493;-63
2021/10/13 07:18:50;;;;;;;29.40;17.10;;;;;;;6.08;78.99;97157.98;116042;1184;67689;-67
2021/10/13 07:21:19;;;;;;;14.10;9.50;;;;;;;6.15;79.10;97161.17;116049;1184;69862;-66
2021/10/13 07:23:48;;;;;;;30.90;18.00;;;;;;;6.24;78.95;97161.70;116142;1184;60462;-66
2021/10/13 07:26:17;;;;;;;26.00;16.70;;;;;;;6.29;78.94;97162.63;116006;1184;60359;-65
2021/10/13 07:28:47;;;;;;;25.00;14.70;;;;;;;6.36;78.85;97164.10;116011;1184;72197;-65
2021/10/13 07:31:16;;;;;;;24.60;13.90;;;;;;;6.43;78.62;97169.91;116020;1184;68016;-64
2021/10/13 07:33:45;;;;;;;17.00;10.90;;;;;;;6.49;78.46;97170.27;116144;1183;68652;-67
2021/10/13 07:36:14;;;;;;;22.10;14.00;;;;;;;6.51;78.16;97169.64;116208;1184;60346;-64
2021/10/13 07:38:46;;;;;;;31.00;18.20;;;;;;;6.54;78.29;97174.27;116088;1184;60387;-70
2021/10/13 07:41:16;;;;;;;19.50;12.10;;;;;;;6.56;78.38;97175.70;115988;1184;72749;-67
2021/10/13 07:43:46;;;;;;;25.40;14.50;;;;;;;6.60;78.09;97178.42;116065;1184;67455;-66
2021/10/13 07:46:15;;;;;;;25.60;13.90;;;;;;;6.64;77.86;97181.43;116041;1183;69093;-65
2021/10/13 07:48:44;;;;;;;15.40;9.70;;;;;;;6.71;77.98;97185.39;116181;1182;60377;-69
2021/10/13 07:51:14;;;;;;;28.00;17.90;;;;;;;6.77;77.93;97184.63;116158;1182;60433;-65
2021/10/13 07:53:43;;;;;;;18.10;11.10;;;;;;;6.81;77.47;97184.26;116067;1181;71944;-66
2021/10/13 07:56:13;;;;;;;22.40;13.20;;;;;;;6.83;77.39;97186.88;116256;1184;67856;-67
2021/10/13 07:58:43;;;;;;;29.60;17.20;;;;;;;6.82;77.10;97190.94;116196;1184;69152;-67
2021/10/13 08:01:12;;;;;;;25.50;16.70;;;;;;;6.81;76.99;97191.54;116246;1182;60377;-66
2021/10/13 08:03:41;;;;;;;23.70;13.30;;;;;;;6.81;76.99;97194.09;116222;1183;60365;-64
2021/10/13 08:06:11;;;;;;;25.80;15.30;;;;;;;6.84;76.89;97189.21;116126;1183;71505;-63
2021/10/13 08:08:40;;;;;;;20.60;12.60;;;;;;;6.93;76.90;97190.77;116252;1182;67741;-66
2021/10/13 08:11:09;;;;;;;18.80;10.80;;;;;;;7.04;76.78;97189.42;116192;1184;68487;-67
2021/10/13 08:13:39;;;;;;;35.90;21.80;;;;;;;7.15;76.30;97186.79;116254;1184;60374;-63
2021/10/13 08:16:08;;;;;;;24.90;14.70;;;;;;;7.10;74.94;97183.98;116028;1184;60267;-64
2021/10/13 08:18:37;;;;;;;22.50;14.30;;;;;;;7.17;75.62;97191.38;116203;1184;72219;-67
2021/10/13 08:21:07;;;;;;;19.70;12.90;;;;;;;7.26;75.65;97191.70;116196;1183;66665;-68
2021/10/13 08:23:36;;;;;;;23.20;13.90;;;;;;;7.35;75.46;97185.52;116119;1184;69966;-67
2021/10/13 08:26:06;;;;;;;21.50;12.60;;;;;;;7.43;75.20;97181.73;116163;1182;60755;-68
2021/10/13 08:28:35;;;;;;;15.20;8.40;;;;;;;7.51;75.38;97181.73;116209;1182;60359;-68
2021/10/13 08:31:05;;;;;;;22.00;12.50;;;;;;;7.63;74.60;97183.77;116221;1183;72224;-67
2021/10/13 08:33:34;;;;;;;21.10;11.90;;;;;;;7.70;73.94;97184.55;116270;1182;68650;-67
2021/10/13 08:36:04;;;;;;;24.50;16.50;;;;;;;7.78;74.02;97184.34;116219;1183;69244;-68
2021/10/13 08:38:33;;;;;;;15.10;9.80;;;;;;;7.80;72.30;97190.66;116011;1184;60353;-67
2021/10/13 08:41:04;;;;;;;16.10;9.90;;;;;;;7.91;73.28;97191.65;116059;1184;60344;-64
2021/10/13 08:43:34;;;;;;;19.10;11.20;;;;;;;7.99;72.68;97192.36;116117;1182;71493;-66
2021/10/13 08:46:03;;;;;;;17.50;10.00;;;;;;;8.07;72.96;97187.99;116250;1182;68537;-67
2021/10/13 08:48:32;;;;;;;;;;;;;;;8.17;72.95;97193.27;116251;1182;68562;-66
2021/10/13 08:51:02;;;;;;;12.60;7.90;;;;;;;8.28;72.91;97197.73;116160;1183;60393;-68
2021/10/13 08:53:32;;;;;;;23.00;14.50;;;;;;;8.39;71.42;97200.81;116200;1183;60313;-68
2021/10/13 08:56:01;;;;;;;20.10;13.20;;;;;;;8.48;71.26;97200.56;116293;1183;71385;-66
2021/10/13 08:58:39;;;;;;;18.40;10.40;;;;;;;8.55;70.94;97200.81;116043;1184;67422;-65
2021/10/13 09:01:14;;;;;;;18.50;11.60;;;;;;;8.56;70.63;97203.65;116050;1184;69441;-65
2021/10/13 09:03:46;;;;;;;20.50;13.10;;;;;;;8.60;71.18;97204.98;116089;1184;60453;-66
2021/10/13 09:06:23;;;;;;;20.60;13.80;;;;;;;8.54;68.28;97206.58;116209;1183;60339;-68
2021/10/13 09:09:06;;;;;;;19.30;11.80;;;;;;;8.51;68.28;97205.73;116099;1183;72305;-67
2021/10/13 09:11:42;;;;;;;17.20;11.00;;;;;;;8.60;69.63;97202.83;116230;1184;68415;-65
2021/10/13 09:14:19;;;;;;;17.60;12.20;;;;;;;8.66;69.95;97205.89;116049;1182;69903;-67
2021/10/13 09:16:55;;;;;;;15.70;10.10;;;;;;;8.72;69.81;97207.10;116221;1184;60287;-67
2021/10/13 09:19:47;;;;;;;17.60;11.20;;;;;;;8.78;69.48;97212.91;116124;1184;60388;-68
2021/10/13 09:22:18;;;;;;;15.50;10.00;;;;;;;8.96;68.79;97214.96;116047;1184;71333;-69
2021/10/13 09:24:50;;;;;;;13.20;9.30;;;;;;;9.28;69.31;97213.30;115981;1184;68121;-66
2021/10/13 09:27:30;;;;;;;11.50;7.50;;;;;;;9.60;67.27;97206.13;116069;1184;69448;-65
2021/10/13 09:29:59;;;;;;;;;;;;;;;9.76;66.94;97212.26;116002;1184;60387;-68
2021/10/13 09:32:29;;;;;;;14.10;9.10;;;;;;;9.76;65.15;97209.33;116225;1183;60460;-69
2021/10/13 09:34:58;;;;;;;19.40;11.70;;;;;;;9.81;65.56;97209.64;116126;1184;72300;-66
2021/10/13 09:37:48;;;;;;;17.40;11.20;;;;;;;9.90;65.16;97210.92;116150;1183;69073;-65
2021/10/13 09:40:28;;;;;;;;;;;;;;;9.99;64.35;97209.36;116035;1184;69285;-67
2021/10/13 09:42:59;;;;;;;15.10;10.00;;;;;;;10.06;63.87;97208.86;116037;1184;60364;-65
2021/10/13 09:45:31;;;;;;;12.30;8.20;;;;;;;10.21;63.86;97200.98;116058;1184;60345;-68
2021/10/13 09:48:06;;;;;;;12.70;8.10;;;;;;;11.36;62.54;97201.00;115990;1184;72780;-69
2021/10/13 09:50:45;;;;;;;16.00;10.40;;;;;;;13.17;58.32;97200.17;116046;1184;68257;-66
2021/10/13 09:53:22;;;;;;;14.50;10.40;;;;;;;14.80;52.22;97194.85;116020;1184;68537;-67
2021/10/13 09:55:52;;;;;;;12.50;9.10;;;;;;;14.94;51.15;97197.24;115882;1184;60812;-68
2021/10/13 09:58:34;;;;;;;13.50;9.30;;;;;;;14.79;51.14;97196.19;115973;1184;60365;-69
2021/10/13 10:01:12;;;;;;;12.40;8.10;;;;;;;15.02;50.54;97197.14;116013;1184;72760;-67
2021/10/13 10:03:47;;;;;;;9.60;6.70;;;;;;;15.50;48.63;97195.39;115957;1184;67752;-68
2021/10/13 10:06:17;;;;;;;8.50;6.30;;;;;;;16.08;47.26;97196.85;115978;1184;68413;-70
2021/10/13 10:08:59;;;;;;;9.30;6.60;;;;;;;16.83;46.28;97193.74;116105;1184;60335;-67
2021/10/13 10:11:40;;;;;;;10.50;7.80;;;;;;;17.81;41.05;97190.81;116199;1183;60742;-69
2021/10/13 10:14:35;;;;;;;8.50;6.60;;;;;;;18.64;41.37;97196.16;115980;1184;72212;-67
2021/10/13 10:17:06;;;;;;;8.60;6.10;;;;;;;18.57;43.38;97197.33;116049;1183;68537;-71
2021/10/13 10:19:44;;;;;;;8.90;7.30;;;;;;;17.98;40.67;97191.66;116085;1182;69262;-69
2021/10/13 10:22:18;;;;;;;7.20;6.00;;;;;;;17.42;41.76;97194.71;116253;1182;60310;-69
2021/10/13 10:24:47;;;;;;;10.80;7.50;;;;;;;17.01;43.87;97196.80;116268;1182;60431;-67
2021/10/13 10:27:29;;;;;;;7.80;6.10;;;;;;;16.46;44.13;97191.59;116281;1184;72103;-69
2021/10/13 10:30:17;;;;;;;11.90;8.80;;;;;;;16.00;44.52;97191.96;116029;1184;68629;-68
2021/10/13 10:33:15;;;;;;;9.20;6.30;;;;;;;15.55;44.52;97191.23;116189;1184;69328;-70
2021/10/13 10:35:46;;;;;;;10.60;8.20;;;;;;;16.87;42.96;97191.41;115907;1184;60434;-67
2021/10/13 10:38:18;;;;;;;8.50;6.70;;;;;;;18.07;40.89;97185.49;116012;1184;60364;-70
2021/10/13 10:40:48;;;;;;;10.60;8.00;;;;;;;18.85;37.64;97181.33;116262;1182;72351;-67
2021/10/13 10:43:27;;;;;;;8.10;6.50;;;;;;;19.15;38.56;97183.01;116244;1182;68189;-68
2021/10/13 10:45:59;;;;;;;7.60;6.80;;;;;;;19.82;37.99;97181.11;115963;1184;68509;-69
2021/10/13 10:48:46;;;;;;;7.90;6.00;;;;;;;20.84;37.11;97185.89;115995;1184;60402;-69
2021/10/13 10:51:15;;;;;;;8.60;7.00;;;;;;;21.78;35.12;97180.15;116048;1182;60411;-69
2021/10/13 10:53:45;;;;;;;7.60;5.80;;;;;;;22.38;32.60;97180.00;116283;1183;72804;-70
2021/10/13 10:56:19;;;;;;;7.40;5.30;;;;;;;22.98;30.61;97177.04;116240;1182;66906;-68
2021/10/13 10:59:08;;;;;;;5.80;5.00;;;;;;;23.47;31.55;97174.31;116255;1182;69060;-68
2021/10/13 11:01:39;;;;;;;5.80;4.80;;;;;;;23.82;29.08;97175.59;116074;1184;60624;-68
2021/10/13 11:04:10;;;;;;;6.60;5.20;;;;;;;24.23;29.44;97171.94;116228;1183;60352;-70
2021/10/13 11:06:45;;;;;;;8.50;5.60;;;;;;;24.73;28.85;97172.55;116256;1184;72777;-68
2021/10/13 11:09:14;;;;;;;5.80;4.60;;;;;;;24.96;27.45;97172.12;116241;1183;68270;-68
2021/10/13 11:11:47;;;;;;;5.30;3.90;;;;;;;25.15;28.14;97176.92;116296;1182;69381;-70
2021/10/13 11:14:21;;;;;;;6.40;5.60;;;;;;;25.03;27.05;97172.05;116308;1182;60347;-69
2021/10/13 11:16:58;;;;;;;4.80;4.30;;;;;;;25.09;27.05;97168.86;116253;1183;60370;-67
2021/10/13 11:19:31;;;;;;;6.20;4.70;;;;;;;25.26;26.47;97166.73;116214;1183;72155;-70
2021/10/13 11:22:10;;;;;;;5.50;4.60;;;;;;;24.91;25.20;97163.77;116149;1184;67673;-68
2021/10/13 11:24:46;;;;;;;7.20;5.20;;;;;;;24.80;26.18;97168.12;115999;1184;69857;-70
2021/10/13 11:27:23;;;;;;;6.10;4.50;;;;;;;24.63;26.56;97170.94;116141;1184;60418;-66
2021/10/13 11:29:52;;;;;;;7.30;6.30;;;;;;;25.05;27.16;97167.33;116266;1183;60336;-66
2021/10/13 11:32:23;;;;;;;4.40;3.60;;;;;;;24.94;26.34;97167.80;116200;1183;72894;-67
2021/10/13 11:34:58;;;;;;;6.30;4.40;;;;;;;25.08;27.38;97164.99;116264;1184;68442;-68
2021/10/13 11:37:28;;;;;;;5.90;4.90;;;;;;;24.78;25.72;97159.80;116114;1183;69280;-68
2021/10/13 11:39:58;;;;;;;5.70;4.50;;;;;;;24.89;27.05;97163.36;116063;1183;60365;-68
2021/10/13 11:42:28;;;;;;;5.80;4.30;;;;;;;25.13;27.02;97161.36;116062;1183;60424;-67
2021/10/13 11:44:57;;;;;;;7.40;5.80;;;;;;;25.36;25.73;97159.90;116338;1183;72875;-69
2021/10/13 11:47:37;;;;;;;4.80;3.80;;;;;;;25.15;24.78;97159.76;115910;1184;68293;-71